createdAt,value
2017-12-16T00:01:11.100Z,996.13
2017-12-16T00:02:11.012Z,996.12
2017-12-16T00:04:04.262Z,996.12
2017-12-16T00:05:04.191Z,996.18
2017-12-16T00:06:57.525Z,996.22
2017-12-16T00:07:57.435Z,996.23
2017-12-16T00:09:50.697Z,996.24
2017-12-16T00:10:50.606Z,996.23
2017-12-16T00:12:43.855Z,996.18
2017-12-16T00:13:43.785Z,996.22
2017-12-16T00:15:37.054Z,996.22
2017-12-16T00:16:36.962Z,996.26
2017-12-16T00:18:30.210Z,996.29
2017-12-16T00:19:30.147Z,996.35
2017-12-16T00:21:23.411Z,996.35
2017-12-16T00:22:23.320Z,996.37
2017-12-16T00:24:16.571Z,996.37
2017-12-16T00:25:16.504Z,996.38
2017-12-16T00:27:09.770Z,996.43
2017-12-16T00:28:09.675Z,996.46
2017-12-16T00:30:02.935Z,996.49
2017-12-16T00:31:02.844Z,996.45
2017-12-16T00:32:56.098Z,996.46
2017-12-16T00:33:56.022Z,996.48
2017-12-16T00:35:49.300Z,996.47
2017-12-16T00:36:49.203Z,996.52
2017-12-16T00:38:42.512Z,996.50
2017-12-16T00:39:42.428Z,996.47
2017-12-16T00:41:35.700Z,996.50
2017-12-16T00:42:35.609Z,996.51
2017-12-16T00:44:28.863Z,996.53
2017-12-16T00:45:28.788Z,996.55
2017-12-16T00:47:22.058Z,996.50
2017-12-16T00:48:21.967Z,996.48
2017-12-16T00:50:15.238Z,996.51
2017-12-16T00:51:15.150Z,996.54
2017-12-16T00:53:08.511Z,996.57
2017-12-16T00:54:08.436Z,996.56
2017-12-16T00:56:01.705Z,996.58
2017-12-16T00:57:01.613Z,996.57
2017-12-16T00:58:54.878Z,996.61
2017-12-16T00:59:54.802Z,996.64
2017-12-16T01:01:48.068Z,996.69
2017-12-16T01:02:47.980Z,996.70
2017-12-16T01:04:41.231Z,996.73
2017-12-16T01:05:41.159Z,996.67
2017-12-16T01:07:34.522Z,996.67
2017-12-16T01:08:34.437Z,996.70
2017-12-16T01:10:27.702Z,996.75
2017-12-16T01:11:27.609Z,996.77
2017-12-16T01:13:20.868Z,996.80
2017-12-16T01:14:20.791Z,996.78
2017-12-16T01:16:14.061Z,996.79
2017-12-16T01:17:13.972Z,996.80
2017-12-16T01:19:07.222Z,996.79
2017-12-16T01:20:07.150Z,996.78
2017-12-16T01:22:00.521Z,996.86
2017-12-16T01:23:00.429Z,996.84
2017-12-16T01:24:53.679Z,996.85
2017-12-16T01:25:53.608Z,996.87
2017-12-16T01:27:46.884Z,996.85
2017-12-16T01:28:46.786Z,996.89
2017-12-16T01:30:40.059Z,996.93
2017-12-16T01:31:39.968Z,996.91
2017-12-16T01:33:33.216Z,996.95
2017-12-16T01:34:33.152Z,997.01
2017-12-16T01:36:26.534Z,997.04
2017-12-16T01:37:26.435Z,997.02
2017-12-16T01:39:19.685Z,997.07
2017-12-16T01:40:19.603Z,997.08
2017-12-16T01:42:12.876Z,997.06
2017-12-16T01:43:12.786Z,997.07
2017-12-16T01:45:06.039Z,997.10
2017-12-16T01:46:05.967Z,997.06
2017-12-16T01:47:59.235Z,997.07
2017-12-16T01:48:59.144Z,997.14
2017-12-16T01:50:52.415Z,997.11
2017-12-16T01:51:52.324Z,997.14
2017-12-16T01:53:45.585Z,997.14
2017-12-16T01:54:45.509Z,997.14
2017-12-16T01:56:38.776Z,997.20
2017-12-16T01:57:38.685Z,997.18
2017-12-16T01:59:31.935Z,997.26
2017-12-16T02:00:31.855Z,997.28
2017-12-16T02:02:25.128Z,997.29
2017-12-16T02:03:25.036Z,997.31
2017-12-16T02:05:18.508Z,997.30
2017-12-16T02:06:18.438Z,997.33
2017-12-16T02:08:11.700Z,997.34
2017-12-16T02:09:11.609Z,997.33
2017-12-16T02:11:04.888Z,997.34
2017-12-16T02:12:04.793Z,997.34
2017-12-16T02:13:58.045Z,997.35
2017-12-16T02:14:57.971Z,997.32
2017-12-16T02:16:51.249Z,997.37
2017-12-16T02:17:51.158Z,997.33
2017-12-16T02:19:44.508Z,997.37
2017-12-16T02:20:44.440Z,997.34
2017-12-16T02:22:37.704Z,997.40
2017-12-16T02:23:37.615Z,997.42
2017-12-16T02:25:30.869Z,997.43
2017-12-16T02:26:30.795Z,997.43
2017-12-16T02:28:24.068Z,997.47
2017-12-16T02:29:23.989Z,997.45
2017-12-16T02:31:17.246Z,997.46
2017-12-16T02:32:17.152Z,997.50
2017-12-16T02:34:10.503Z,997.49
2017-12-16T02:35:10.431Z,997.51
2017-12-16T02:37:03.708Z,997.49
2017-12-16T02:38:03.610Z,997.43
2017-12-16T02:39:56.863Z,997.34
2017-12-16T02:40:56.791Z,997.38
2017-12-16T02:42:50.061Z,997.39
2017-12-16T02:43:49.978Z,997.45
2017-12-16T02:45:43.221Z,997.48
2017-12-16T02:46:43.147Z,997.48
2017-12-16T02:48:36.419Z,997.55
2017-12-16T02:49:36.328Z,997.60
2017-12-16T02:51:29.596Z,997.60
2017-12-16T02:52:29.504Z,997.63
2017-12-16T02:54:22.759Z,997.63
2017-12-16T02:55:22.686Z,997.68
2017-12-16T02:57:15.463Z,997.66
2017-12-16T02:58:15.373Z,997.69
2017-12-16T03:00:08.626Z,997.72
2017-12-16T03:01:08.557Z,997.70
2017-12-16T03:03:01.821Z,997.78
2017-12-16T03:04:01.732Z,997.70
2017-12-16T03:05:54.982Z,997.75
2017-12-16T03:06:54.910Z,997.81
2017-12-16T03:08:48.182Z,997.79
2017-12-16T03:09:48.121Z,997.77
2017-12-16T03:11:41.527Z,997.86
2017-12-16T03:12:41.435Z,997.88
2017-12-16T03:14:34.717Z,997.87
2017-12-16T03:15:34.642Z,997.94
2017-12-16T03:17:27.912Z,997.93
2017-12-16T03:18:27.820Z,997.97
2017-12-16T03:20:21.072Z,998.05
2017-12-16T03:21:20.999Z,998.07
2017-12-16T03:23:14.270Z,998.13
2017-12-16T03:24:14.179Z,998.15
2017-12-16T03:26:07.505Z,998.14
2017-12-16T03:27:07.438Z,998.11
2017-12-16T03:29:00.704Z,998.07
2017-12-16T03:30:00.612Z,998.08
2017-12-16T03:31:53.882Z,998.11
2017-12-16T03:32:53.790Z,998.13
2017-12-16T03:34:47.061Z,998.16
2017-12-16T03:35:46.976Z,998.16
2017-12-16T03:37:40.245Z,998.20
2017-12-16T03:38:40.157Z,998.20
2017-12-16T03:40:33.518Z,998.22
2017-12-16T03:41:33.438Z,998.25
2017-12-16T03:43:26.709Z,998.27
2017-12-16T03:44:26.620Z,998.28
2017-12-16T03:46:19.869Z,998.26
2017-12-16T03:47:19.795Z,998.23
2017-12-16T03:49:13.098Z,998.27
2017-12-16T03:50:13.005Z,998.26
2017-12-16T03:52:06.275Z,998.30
2017-12-16T03:53:06.184Z,998.32
2017-12-16T03:54:59.436Z,998.40
2017-12-16T03:55:59.364Z,998.40
2017-12-16T03:57:52.626Z,998.40
2017-12-16T03:58:52.541Z,998.42
2017-12-16T04:00:45.792Z,998.34
2017-12-16T04:01:45.720Z,998.39
2017-12-16T04:03:38.977Z,998.42
2017-12-16T04:04:38.885Z,998.42
2017-12-16T04:06:32.131Z,998.43
2017-12-16T04:07:32.053Z,998.46
2017-12-16T04:09:25.316Z,998.44
2017-12-16T04:10:25.223Z,998.47
2017-12-16T04:12:18.525Z,998.47
2017-12-16T04:13:18.436Z,998.42
2017-12-16T04:15:11.693Z,998.41
2017-12-16T04:16:11.617Z,998.40
2017-12-16T04:18:04.890Z,998.41
2017-12-16T04:19:04.794Z,998.38
2017-12-16T04:20:58.046Z,998.40
2017-12-16T04:21:57.974Z,998.43
2017-12-16T04:23:51.262Z,998.39
2017-12-16T04:24:51.152Z,998.43
2017-12-16T04:26:45.241Z,998.43
2017-12-16T04:27:45.172Z,998.42
2017-12-16T04:29:38.533Z,998.42
2017-12-16T04:30:38.437Z,998.47
2017-12-16T04:32:31.711Z,998.52
2017-12-16T04:33:31.620Z,998.45
2017-12-16T04:35:24.869Z,998.52
2017-12-16T04:36:24.796Z,998.46
2017-12-16T04:38:18.052Z,998.51
2017-12-16T04:39:17.969Z,998.54
2017-12-16T04:41:11.204Z,998.49
2017-12-16T04:42:11.127Z,998.45
2017-12-16T04:44:04.524Z,998.50
2017-12-16T04:45:04.431Z,998.49
2017-12-16T04:46:57.682Z,998.49
2017-12-16T04:47:57.608Z,998.52
2017-12-16T04:49:50.904Z,998.59
2017-12-16T04:50:50.806Z,998.60
2017-12-16T04:52:44.081Z,998.60
2017-12-16T04:53:43.991Z,998.63
2017-12-16T04:55:37.234Z,998.66
2017-12-16T04:56:37.158Z,998.67
2017-12-16T04:58:30.527Z,998.61
2017-12-16T04:59:30.433Z,998.62
2017-12-16T05:01:23.683Z,998.59
2017-12-16T05:02:23.611Z,998.63
2017-12-16T05:04:16.880Z,998.62
2017-12-16T05:05:16.789Z,998.65
2017-12-16T05:07:10.047Z,998.67
2017-12-16T05:08:09.970Z,998.64
2017-12-16T05:10:04.232Z,998.75
2017-12-16T05:11:04.140Z,998.76
2017-12-16T05:12:57.530Z,998.72
2017-12-16T05:13:57.435Z,998.71
2017-12-16T05:15:50.689Z,998.78
2017-12-16T05:16:50.614Z,998.71
2017-12-16T05:18:43.880Z,998.70
2017-12-16T05:19:43.783Z,998.76
2017-12-16T05:21:37.025Z,998.77
2017-12-16T05:22:36.950Z,998.76
2017-12-16T05:24:30.221Z,998.89
2017-12-16T05:25:30.129Z,998.86
2017-12-16T05:27:23.500Z,998.93
2017-12-16T05:28:23.429Z,998.96
2017-12-16T05:30:16.694Z,998.97
2017-12-16T05:31:16.606Z,998.97
2017-12-16T05:33:09.873Z,999.05
2017-12-16T05:34:09.782Z,999.00
2017-12-16T05:36:03.033Z,998.98
2017-12-16T05:37:02.960Z,998.99
2017-12-16T05:38:56.222Z,999.03
2017-12-16T05:39:56.126Z,999.00
2017-12-16T05:41:49.504Z,998.98
2017-12-16T05:42:49.431Z,998.99
2017-12-16T05:44:42.700Z,999.04
2017-12-16T05:45:42.606Z,999.05
2017-12-16T05:47:35.856Z,999.10
2017-12-16T05:48:35.789Z,999.10
2017-12-16T05:50:29.054Z,999.11
2017-12-16T05:51:28.964Z,999.12
2017-12-16T05:53:22.223Z,999.08
2017-12-16T05:54:22.130Z,999.13
2017-12-16T05:56:15.511Z,999.20
2017-12-16T05:57:15.436Z,999.23
2017-12-16T05:59:08.694Z,999.21
2017-12-16T06:00:08.607Z,999.19
2017-12-16T06:02:01.858Z,999.22
2017-12-16T06:03:01.786Z,999.22
2017-12-16T06:04:55.052Z,999.22
2017-12-16T06:05:54.961Z,999.23
2017-12-16T06:07:48.213Z,999.26
2017-12-16T06:08:48.140Z,999.22
2017-12-16T06:10:41.528Z,999.27
2017-12-16T06:11:41.434Z,999.29
2017-12-16T06:13:34.710Z,999.27
2017-12-16T06:14:34.618Z,999.26
2017-12-16T06:16:27.879Z,999.28
2017-12-16T06:17:27.805Z,999.32
2017-12-16T06:19:21.067Z,999.31
2017-12-16T06:20:20.975Z,999.31
2017-12-16T06:22:14.227Z,999.39
2017-12-16T06:23:14.152Z,999.40
2017-12-16T06:25:07.532Z,999.37
2017-12-16T06:26:07.439Z,999.40
2017-12-16T06:28:00.688Z,999.43
2017-12-16T06:29:00.615Z,999.46
2017-12-16T06:30:53.888Z,999.46
2017-12-16T06:31:53.796Z,999.48
2017-12-16T06:33:47.064Z,999.46
2017-12-16T06:34:46.976Z,999.47
2017-12-16T06:36:40.226Z,999.48
2017-12-16T06:37:40.151Z,999.48
2017-12-16T06:39:33.520Z,999.50
2017-12-16T06:40:33.430Z,999.56
2017-12-16T06:42:26.670Z,999.53
2017-12-16T06:43:26.596Z,999.53
2017-12-16T06:45:19.863Z,999.55
2017-12-16T06:46:19.773Z,999.56
2017-12-16T06:48:13.021Z,999.59
2017-12-16T06:49:12.949Z,999.59
2017-12-16T06:51:06.220Z,999.60
2017-12-16T06:52:06.128Z,999.65
2017-12-16T06:53:59.522Z,999.67
2017-12-16T06:54:59.431Z,999.73
2017-12-16T06:56:52.684Z,999.75
2017-12-16T06:57:52.631Z,999.78
2017-12-16T06:59:45.870Z,999.79
2017-12-16T07:00:45.778Z,999.74
2017-12-16T07:02:39.029Z,999.83
2017-12-16T07:03:38.955Z,999.78
2017-12-16T07:05:32.224Z,999.78
2017-12-16T07:06:32.136Z,999.86
2017-12-16T07:08:25.504Z,999.88
2017-12-16T07:09:25.431Z,999.91
2017-12-16T07:11:18.701Z,999.89
2017-12-16T07:12:18.608Z,999.90
2017-12-16T07:14:11.877Z,999.90
2017-12-16T07:15:11.784Z,999.94
2017-12-16T07:17:05.032Z,1000.02
2017-12-16T07:18:04.959Z,1000.02
2017-12-16T07:19:58.221Z,1000.07
2017-12-16T07:20:58.131Z,1000.08
2017-12-16T07:22:51.379Z,1000.12
2017-12-16T07:23:51.309Z,1000.17
2017-12-16T07:25:44.595Z,1000.21
2017-12-16T07:26:44.490Z,1000.20
2017-12-16T07:28:37.740Z,1000.24
2017-12-16T07:29:37.665Z,1000.25
2017-12-16T07:31:30.934Z,1000.29
2017-12-16T07:32:30.842Z,1000.33
2017-12-16T07:34:24.111Z,1000.33
2017-12-16T07:35:24.018Z,1000.40
2017-12-16T07:37:17.273Z,1000.36
2017-12-16T07:38:17.200Z,1000.40
2017-12-16T07:40:10.466Z,1000.47
2017-12-16T07:41:10.370Z,1000.44
2017-12-16T07:43:03.622Z,1000.55
2017-12-16T07:44:03.547Z,1000.52
2017-12-16T07:45:56.841Z,1000.50
2017-12-16T07:46:56.724Z,1000.50
2017-12-16T07:48:49.977Z,1000.51
2017-12-16T07:49:49.902Z,1000.53
2017-12-16T07:51:43.168Z,1000.59
2017-12-16T07:52:43.127Z,1000.65
2017-12-16T07:54:36.371Z,1000.65
2017-12-16T07:55:36.261Z,1000.65
2017-12-16T07:57:29.519Z,1000.61
2017-12-16T07:58:29.448Z,1000.63
2017-12-16T08:00:22.711Z,1000.67
2017-12-16T08:01:22.625Z,1000.67
2017-12-16T08:03:15.868Z,1000.75
2017-12-16T08:04:15.790Z,1000.77
2017-12-16T08:06:09.064Z,1000.80
2017-12-16T08:07:08.971Z,1000.85
2017-12-16T08:09:02.222Z,1000.89
2017-12-16T08:10:02.146Z,1000.91
2017-12-16T08:11:55.421Z,1000.92
2017-12-16T08:12:55.325Z,1000.95
2017-12-16T08:14:48.605Z,1000.98
2017-12-16T08:15:48.505Z,1001.00
2017-12-16T08:17:41.755Z,1000.99
2017-12-16T08:18:41.681Z,1001.00
2017-12-16T08:20:34.951Z,1001.05
2017-12-16T08:21:34.861Z,1001.03
2017-12-16T08:23:28.113Z,1001.01
2017-12-16T08:24:28.038Z,1001.06
2017-12-16T08:26:21.310Z,1001.06
2017-12-16T08:27:21.217Z,1001.06
2017-12-16T08:29:14.472Z,1001.08
2017-12-16T08:30:14.399Z,1001.09
2017-12-16T08:32:07.665Z,1001.07
2017-12-16T08:33:07.572Z,1001.08
2017-12-16T08:35:00.846Z,1001.10
2017-12-16T08:36:00.751Z,1001.11
2017-12-16T08:37:54.009Z,1001.16
2017-12-16T08:38:53.928Z,1001.17
2017-12-16T08:40:47.198Z,1001.24
2017-12-16T08:41:47.109Z,1001.25
2017-12-16T08:43:40.360Z,1001.24
2017-12-16T08:44:40.289Z,1001.27
2017-12-16T08:46:33.555Z,1001.30
2017-12-16T08:47:33.467Z,1001.31
2017-12-16T08:49:26.711Z,1001.38
2017-12-16T08:50:26.637Z,1001.36
2017-12-16T08:52:19.910Z,1001.41
2017-12-16T08:53:19.850Z,1001.39
2017-12-16T08:55:13.092Z,1001.42
2017-12-16T08:56:13.003Z,1001.43
2017-12-16T08:58:06.256Z,1001.46
2017-12-16T08:59:06.185Z,1001.48
2017-12-16T09:00:59.459Z,1001.51
2017-12-16T09:01:59.397Z,1001.52
2017-12-16T09:03:52.624Z,1001.49
2017-12-16T09:04:52.553Z,1001.57
2017-12-16T09:06:45.825Z,1001.60
2017-12-16T09:07:45.737Z,1001.62
2017-12-16T09:09:39.012Z,1001.61
2017-12-16T09:10:38.924Z,1001.61
2017-12-16T09:12:32.181Z,1001.66
2017-12-16T09:13:32.110Z,1001.70
2017-12-16T09:15:25.465Z,1001.72
2017-12-16T09:16:25.316Z,1001.67
2017-12-16T09:18:18.560Z,1001.70
2017-12-16T09:19:18.486Z,1001.72
2017-12-16T09:21:11.758Z,1001.71
2017-12-16T09:22:11.658Z,1001.74
2017-12-16T09:24:05.910Z,1001.78
2017-12-16T09:25:05.839Z,1001.82
2017-12-16T09:26:59.105Z,1001.82
2017-12-16T09:27:59.019Z,1001.83
2017-12-16T09:29:52.292Z,1001.91
2017-12-16T09:30:52.202Z,1001.91
2017-12-16T09:32:45.458Z,1001.90
2017-12-16T09:33:45.379Z,1001.91
2017-12-16T09:35:38.646Z,1001.97
2017-12-16T09:36:38.562Z,1002.04
2017-12-16T09:38:31.806Z,1002.03
2017-12-16T09:39:31.736Z,1002.09
2017-12-16T09:41:25.019Z,1002.03
2017-12-16T09:42:24.933Z,1002.12
2017-12-16T09:44:18.183Z,1001.94
2017-12-16T09:45:18.111Z,1002.03
2017-12-16T09:47:11.404Z,1002.02
2017-12-16T09:48:11.311Z,1002.02
2017-12-16T09:50:04.581Z,1002.15
2017-12-16T09:51:04.495Z,1002.15
2017-12-16T09:52:57.736Z,1002.15
2017-12-16T09:53:57.673Z,1002.18
2017-12-16T09:55:51.020Z,1002.21
2017-12-16T09:56:50.920Z,1002.19
2017-12-16T09:58:44.177Z,1002.24
2017-12-16T09:59:44.097Z,1002.29
2017-12-16T10:01:37.403Z,1002.35
2017-12-16T10:02:37.314Z,1002.26
2017-12-16T10:04:30.588Z,1002.23
2017-12-16T10:05:30.496Z,1002.20
2017-12-16T10:07:23.767Z,1002.23
2017-12-16T10:08:23.679Z,1002.22
2017-12-16T10:10:16.945Z,1002.29
2017-12-16T10:11:16.860Z,1002.28
2017-12-16T10:13:10.107Z,1002.30
2017-12-16T10:14:10.036Z,1002.32
2017-12-16T10:16:03.403Z,1002.25
2017-12-16T10:17:03.314Z,1002.28
2017-12-16T10:18:56.595Z,1002.27
2017-12-16T10:19:56.523Z,1002.35
2017-12-16T10:21:49.790Z,1002.30
2017-12-16T10:22:49.700Z,1002.32
2017-12-16T10:24:43.034Z,1002.39
2017-12-16T10:25:42.938Z,1002.36
2017-12-16T10:27:36.204Z,1002.40
2017-12-16T10:28:36.115Z,1002.42
2017-12-16T10:30:29.401Z,1002.48
2017-12-16T10:31:29.308Z,1002.48
2017-12-16T10:33:22.631Z,1002.48
2017-12-16T10:34:22.495Z,1002.51
2017-12-16T10:36:15.765Z,1002.53
2017-12-16T10:37:15.683Z,1002.51
2017-12-16T10:39:08.921Z,1002.51
2017-12-16T10:40:08.875Z,1002.49
2017-12-16T10:42:02.112Z,1002.48
2017-12-16T10:43:02.019Z,1002.50
2017-12-16T10:44:55.410Z,1002.50
2017-12-16T10:45:55.373Z,1002.43
2017-12-16T10:47:48.601Z,1002.52
2017-12-16T10:48:48.514Z,1002.53
2017-12-16T10:50:41.777Z,1002.53
2017-12-16T10:51:41.677Z,1002.56
2017-12-16T10:53:34.920Z,1002.55
2017-12-16T10:54:34.850Z,1002.54
2017-12-16T10:56:28.128Z,1002.63
2017-12-16T10:57:28.035Z,1002.58
2017-12-16T10:59:21.388Z,1002.57
2017-12-16T11:00:21.315Z,1002.58
2017-12-16T11:02:14.617Z,1002.65
2017-12-16T11:03:14.509Z,1002.68
2017-12-16T11:05:07.746Z,1002.66
2017-12-16T11:06:07.718Z,1002.72
2017-12-16T11:08:00.943Z,1002.76
2017-12-16T11:09:00.856Z,1002.79
2017-12-16T11:10:54.110Z,1002.76
2017-12-16T11:11:54.026Z,1002.70
2017-12-16T11:13:47.271Z,1002.77
2017-12-16T11:14:47.198Z,1002.76
2017-12-16T11:16:40.462Z,1002.79
2017-12-16T11:17:40.372Z,1002.81
2017-12-16T11:19:33.625Z,1002.77
2017-12-16T11:20:33.546Z,1002.80
2017-12-16T11:22:26.831Z,1002.76
2017-12-16T11:23:26.742Z,1002.75
2017-12-16T11:25:19.987Z,1002.82
2017-12-16T11:26:19.959Z,1002.84
2017-12-16T11:28:13.177Z,1002.86
2017-12-16T11:29:13.089Z,1002.89
2017-12-16T11:31:06.361Z,1002.84
2017-12-16T11:32:06.291Z,1002.82
2017-12-16T11:33:59.445Z,1002.80
2017-12-16T11:34:59.050Z,1002.81
2017-12-16T11:36:52.338Z,1002.80
2017-12-16T11:37:52.245Z,1002.75
2017-12-16T11:39:45.491Z,1002.83
2017-12-16T11:40:45.453Z,1002.83
2017-12-16T11:42:38.681Z,1002.77
2017-12-16T11:43:38.595Z,1002.77
2017-12-16T11:45:31.838Z,1002.81
2017-12-16T11:46:31.767Z,1002.76
2017-12-16T11:48:25.029Z,1002.76
2017-12-16T11:49:24.938Z,1002.79
2017-12-16T11:51:18.206Z,1002.80
2017-12-16T11:52:18.112Z,1002.78
2017-12-16T11:54:11.378Z,1002.89
2017-12-16T11:55:11.312Z,1002.85
2017-12-16T11:57:04.579Z,1002.85
2017-12-16T11:58:04.485Z,1002.91
2017-12-16T11:59:57.741Z,1002.88
2017-12-16T12:00:57.677Z,1002.87
2017-12-16T12:02:50.932Z,1002.88
2017-12-16T12:03:50.843Z,1002.85
2017-12-16T12:05:44.273Z,1002.92
2017-12-16T12:06:44.206Z,1002.94
2017-12-16T12:08:37.472Z,1002.91
2017-12-16T12:09:37.377Z,1002.95
2017-12-16T12:11:30.650Z,1003.00
2017-12-16T12:12:30.560Z,1002.95
2017-12-16T12:14:23.815Z,1002.98
2017-12-16T12:15:23.745Z,1002.99
2017-12-16T12:17:17.012Z,1002.98
2017-12-16T12:18:16.913Z,1003.00
2017-12-16T12:20:10.160Z,1003.00
2017-12-16T12:21:10.088Z,1002.95
2017-12-16T12:23:03.400Z,1002.94
2017-12-16T12:24:03.310Z,1003.00
2017-12-16T12:25:56.569Z,1003.01
2017-12-16T12:26:56.521Z,1003.03
2017-12-16T12:28:49.757Z,1003.00
2017-12-16T12:29:49.662Z,1002.93
2017-12-16T12:31:42.925Z,1003.04
2017-12-16T12:32:42.838Z,1003.08
2017-12-16T12:34:36.079Z,1002.96
2017-12-16T12:35:36.007Z,1002.99
2017-12-16T12:37:29.290Z,1003.05
2017-12-16T12:38:29.201Z,1003.11
2017-12-16T12:40:22.449Z,1003.11
2017-12-16T12:41:22.380Z,1003.09
2017-12-16T12:43:15.634Z,1003.11
2017-12-16T12:44:15.546Z,1002.98
2017-12-16T12:46:08.790Z,1003.22
2017-12-16T12:47:08.719Z,1003.18
2017-12-16T12:49:01.994Z,1003.24
2017-12-16T12:50:01.934Z,1003.25
2017-12-16T12:51:55.160Z,1003.23
2017-12-16T12:52:55.071Z,1003.21
2017-12-16T12:54:48.313Z,1003.24
2017-12-16T12:55:48.243Z,1003.31
2017-12-16T12:57:41.512Z,1003.28
2017-12-16T12:58:41.416Z,1003.29
2017-12-16T13:00:34.656Z,1003.30
2017-12-16T13:01:34.586Z,1003.31
2017-12-16T13:03:27.847Z,1003.27
2017-12-16T13:04:27.759Z,1003.26
2017-12-16T13:06:21.068Z,1003.29
2017-12-16T13:07:20.930Z,1003.22
2017-12-16T13:09:14.176Z,1003.16
2017-12-16T13:10:14.102Z,1003.22
2017-12-16T13:12:07.388Z,1003.28
2017-12-16T13:13:07.299Z,1003.24
2017-12-16T13:15:00.542Z,1003.32
2017-12-16T13:16:00.471Z,1003.35
2017-12-16T13:17:53.732Z,1003.37
2017-12-16T13:18:53.651Z,1003.37
2017-12-16T13:20:46.886Z,1003.36
2017-12-16T13:21:46.811Z,1003.33
2017-12-16T13:23:40.102Z,1003.34
2017-12-16T13:24:39.998Z,1003.33
2017-12-16T13:26:33.244Z,1003.32
2017-12-16T13:27:33.154Z,1003.38
2017-12-16T13:29:26.399Z,1003.41
2017-12-16T13:30:26.331Z,1003.40
2017-12-16T13:32:19.591Z,1003.35
2017-12-16T13:33:19.499Z,1003.32
2017-12-16T13:35:12.751Z,1003.43
2017-12-16T13:36:12.679Z,1003.48
2017-12-16T13:38:05.935Z,1003.51
2017-12-16T13:39:05.850Z,1003.48
2017-12-16T13:40:59.107Z,1003.52
2017-12-16T13:41:59.038Z,1003.54
2017-12-16T13:43:52.403Z,1003.48
2017-12-16T13:44:52.319Z,1003.51
2017-12-16T13:46:45.576Z,1003.57
2017-12-16T13:47:45.481Z,1003.52
2017-12-16T13:49:38.719Z,1003.54
2017-12-16T13:50:38.653Z,1003.57
2017-12-16T13:52:31.906Z,1003.64
2017-12-16T13:53:31.815Z,1003.60
2017-12-16T13:55:25.064Z,1003.62
2017-12-16T13:56:24.990Z,1003.68
2017-12-16T13:58:18.249Z,1003.72
2017-12-16T13:59:18.161Z,1003.70
2017-12-16T14:01:11.417Z,1003.74
2017-12-16T14:02:11.345Z,1003.74
2017-12-16T14:04:04.617Z,1003.75
2017-12-16T14:05:04.529Z,1003.77
2017-12-16T14:06:58.799Z,1003.80
2017-12-16T14:07:58.713Z,1003.82
2017-12-16T14:09:51.957Z,1003.84
2017-12-16T14:10:51.884Z,1003.80
2017-12-16T14:12:45.144Z,1003.86
2017-12-16T14:13:45.054Z,1003.85
2017-12-16T14:15:38.381Z,1003.89
2017-12-16T14:16:38.311Z,1003.92
2017-12-16T14:18:31.076Z,1003.97
2017-12-16T14:19:30.988Z,1003.87
2017-12-16T14:21:24.234Z,1003.95
2017-12-16T14:22:24.161Z,1003.94
2017-12-16T14:24:17.428Z,1003.97
2017-12-16T14:25:17.332Z,1003.94
2017-12-16T14:27:10.592Z,1004.01
2017-12-16T14:28:10.505Z,1004.00
2017-12-16T14:30:03.747Z,1004.04
2017-12-16T14:31:03.676Z,1004.07
2017-12-16T14:32:56.944Z,1004.04
2017-12-16T14:33:56.850Z,1004.06
2017-12-16T14:35:50.092Z,1004.15
2017-12-16T14:36:50.018Z,1004.13
2017-12-16T14:38:43.281Z,1004.17
2017-12-16T14:39:43.190Z,1004.16
2017-12-16T14:41:36.440Z,1004.15
2017-12-16T14:42:36.364Z,1004.20
2017-12-16T14:44:29.633Z,1004.24
2017-12-16T14:45:29.567Z,1004.25
2017-12-16T14:47:22.803Z,1004.29
2017-12-16T14:48:22.715Z,1004.27
2017-12-16T14:50:15.954Z,1004.32
2017-12-16T14:51:15.886Z,1004.20
2017-12-16T14:53:09.148Z,1004.30
2017-12-16T14:54:09.058Z,1004.34
2017-12-16T14:56:02.391Z,1004.36
2017-12-16T14:57:02.308Z,1004.37
2017-12-16T14:58:55.577Z,1004.36
2017-12-16T14:59:55.487Z,1004.41
2017-12-16T15:01:48.727Z,1004.40
2017-12-16T15:02:48.656Z,1004.38
2017-12-16T15:04:41.922Z,1004.41
2017-12-16T15:05:41.832Z,1004.42
2017-12-16T15:07:35.090Z,1004.46
2017-12-16T15:08:34.998Z,1004.45
2017-12-16T15:10:28.258Z,1004.56
2017-12-16T15:11:28.185Z,1004.55
2017-12-16T15:13:21.451Z,1004.60
2017-12-16T15:14:21.359Z,1004.61
2017-12-16T15:16:14.600Z,1004.60
2017-12-16T15:17:14.531Z,1004.63
2017-12-16T15:19:07.792Z,1004.58
2017-12-16T15:20:07.701Z,1004.63
2017-12-16T15:22:00.480Z,1004.59
2017-12-16T15:23:00.396Z,1004.61
2017-12-16T15:24:53.659Z,1004.67
2017-12-16T15:25:53.570Z,1004.67
2017-12-16T15:27:46.838Z,1004.67
2017-12-16T15:28:46.742Z,1004.69
2017-12-16T15:30:39.997Z,1004.70
2017-12-16T15:31:39.927Z,1004.65
2017-12-16T15:33:33.190Z,1004.76
2017-12-16T15:34:33.097Z,1004.76
2017-12-16T15:36:26.379Z,1004.79
2017-12-16T15:37:26.306Z,1004.85
2017-12-16T15:39:19.573Z,1004.85
2017-12-16T15:40:19.482Z,1004.85
2017-12-16T15:42:12.723Z,1004.92
2017-12-16T15:43:12.651Z,1004.92
2017-12-16T15:45:05.917Z,1004.94
2017-12-16T15:46:05.826Z,1004.98
2017-12-16T15:47:59.099Z,1004.98
2017-12-16T15:48:59.009Z,1004.96
2017-12-16T15:50:52.262Z,1004.92
2017-12-16T15:51:52.190Z,1005.02
2017-12-16T15:53:45.451Z,1004.99
2017-12-16T15:54:45.361Z,1005.07
2017-12-16T15:56:38.615Z,1004.99
2017-12-16T15:57:38.546Z,1005.03
2017-12-16T15:59:31.802Z,1005.11
2017-12-16T16:00:31.715Z,1005.06
2017-12-16T16:02:25.000Z,1005.09
2017-12-16T16:03:24.885Z,1005.13
2017-12-16T16:05:18.139Z,1005.15
2017-12-16T16:06:18.068Z,1005.15
2017-12-16T16:08:11.335Z,1005.15
2017-12-16T16:09:11.240Z,1005.16
2017-12-16T16:11:04.485Z,1005.23
2017-12-16T16:12:04.413Z,1005.19
2017-12-16T16:13:57.678Z,1005.20
2017-12-16T16:14:57.581Z,1005.22
2017-12-16T16:16:50.830Z,1005.26
2017-12-16T16:17:50.752Z,1005.27
2017-12-16T16:19:44.016Z,1005.25
2017-12-16T16:20:43.925Z,1005.28
2017-12-16T16:22:37.186Z,1005.32
2017-12-16T16:23:37.099Z,1005.34
2017-12-16T16:25:30.338Z,1005.31
2017-12-16T16:26:30.267Z,1005.38
2017-12-16T16:28:23.530Z,1005.39
2017-12-16T16:29:23.440Z,1005.35
2017-12-16T16:31:16.680Z,1005.47
2017-12-16T16:32:16.615Z,1005.43
2017-12-16T16:34:09.871Z,1005.55
2017-12-16T16:35:09.783Z,1005.53
2017-12-16T16:37:03.047Z,1005.55
2017-12-16T16:38:02.970Z,1005.57
2017-12-16T16:39:56.243Z,1005.59
2017-12-16T16:40:56.147Z,1005.58
2017-12-16T16:42:49.534Z,1005.62
2017-12-16T16:43:49.436Z,1005.66
2017-12-16T16:45:42.694Z,1005.64
2017-12-16T16:46:42.617Z,1005.72
2017-12-16T16:48:35.894Z,1005.71
2017-12-16T16:49:35.800Z,1005.62
2017-12-16T16:51:29.053Z,1005.79
2017-12-16T16:52:28.981Z,1005.80
2017-12-16T16:54:22.251Z,1005.79
2017-12-16T16:55:22.158Z,1005.86
2017-12-16T16:57:15.504Z,1005.83
2017-12-16T16:58:15.432Z,1005.87
2017-12-16T17:00:08.699Z,1005.85
2017-12-16T17:01:08.605Z,1005.87
2017-12-16T17:03:01.875Z,1005.90
2017-12-16T17:04:01.787Z,1005.91
2017-12-16T17:05:55.039Z,1005.92
2017-12-16T17:06:54.966Z,1005.95
2017-12-16T17:08:48.238Z,1005.96
2017-12-16T17:09:48.148Z,1005.95
2017-12-16T17:11:41.511Z,1006.00
2017-12-16T17:12:41.437Z,1006.08
2017-12-16T17:14:34.708Z,1006.10
2017-12-16T17:15:34.617Z,1006.10
2017-12-16T17:17:27.869Z,1006.11
2017-12-16T17:18:27.844Z,1006.13
2017-12-16T17:20:21.068Z,1006.16
2017-12-16T17:21:20.975Z,1006.18
2017-12-16T17:23:14.245Z,1006.17
2017-12-16T17:24:14.154Z,1006.21
2017-12-16T17:26:07.502Z,1006.16
2017-12-16T17:27:07.431Z,1006.23
2017-12-16T17:29:00.706Z,1006.23
2017-12-16T17:30:00.617Z,1006.21
2017-12-16T17:31:53.866Z,1006.24
2017-12-16T17:32:53.794Z,1006.27
2017-12-16T17:34:47.064Z,1006.29
2017-12-16T17:35:46.977Z,1006.35
2017-12-16T17:37:40.225Z,1006.33
2017-12-16T17:38:40.155Z,1006.31
2017-12-16T17:40:33.527Z,1006.33